sensor_id;sensor_type;location;lat;lon;timestamp;pressure;altitude;pressure_sealevel;temperature;humidity
67987;BME280;54767;53.800;15.956;2023-06-14T00:02:07;100620.33;;;15.89;54.12
67987;BME280;54767;53.800;15.956;2023-06-14T00:04:37;100621.64;;;15.83;54.36
67987;BME280;54767;53.800;15.956;2023-06-14T00:07:07;100625.61;;;15.76;54.40
67987;BME280;54767;53.800;15.956;2023-06-14T00:09:39;100624.08;;;15.73;54.49
67987;BME280;54767;53.800;15.956;2023-06-14T00:12:07;100622.52;;;15.71;54.50
67987;BME280;54767;53.800;15.956;2023-06-14T00:14:36;100618.65;;;15.68;54.47
67987;BME280;54767;53.800;15.956;2023-06-14T00:17:05;100622.39;;;15.64;54.47
67987;BME280;54767;53.800;15.956;2023-06-14T00:19:35;100619.61;;;15.60;54.60
67987;BME280;54767;53.800;15.956;2023-06-14T00:22:05;100615.23;;;15.57;54.64
67987;BME280;54767;53.800;15.956;2023-06-14T00:24:33;100612.11;;;15.54;54.66
67987;BME280;54767;53.800;15.956;2023-06-14T00:27:01;100610.04;;;15.50;54.67
67987;BME280;54767;53.800;15.956;2023-06-14T00:29:30;100612.86;;;15.49;54.67
67987;BME280;54767;53.800;15.956;2023-06-14T00:31:58;100612.36;;;15.48;54.70
67987;BME280;54767;53.800;15.956;2023-06-14T00:34:27;100612.21;;;15.45;54.87
67987;BME280;54767;53.800;15.956;2023-06-14T00:36:55;100611.55;;;15.42;54.82
67987;BME280;54767;53.800;15.956;2023-06-14T00:39:24;100611.60;;;15.38;54.83
67987;BME280;54767;53.800;15.956;2023-06-14T00:41:52;100613.90;;;15.36;54.96
67987;BME280;54767;53.800;15.956;2023-06-14T00:44:21;100614.81;;;15.33;54.93
67987;BME280;54767;53.800;15.956;2023-06-14T00:46:49;100613.94;;;15.32;55.01
67987;BME280;54767;53.800;15.956;2023-06-14T00:49:19;100614.13;;;15.32;55.08
67987;BME280;54767;53.800;15.956;2023-06-14T00:51:48;100611.33;;;15.29;55.24
67987;BME280;54767;53.800;15.956;2023-06-14T00:54:16;100610.48;;;15.26;55.23
67987;BME280;54767;53.800;15.956;2023-06-14T00:56:45;100601.35;;;15.24;55.23
67987;BME280;54767;53.800;15.956;2023-06-14T00:59:13;100602.09;;;15.21;55.38
67987;BME280;54767;53.800;15.956;2023-06-14T01:01:43;100600.52;;;15.19;55.35
67987;BME280;54767;53.800;15.956;2023-06-14T01:04:12;100595.77;;;15.18;55.41
67987;BME280;54767;53.800;15.956;2023-06-14T01:06:59;100598.09;;;15.17;55.36
67987;BME280;54767;53.800;15.956;2023-06-14T01:09:52;100599.69;;;15.15;55.49
67987;BME280;54767;53.800;15.956;2023-06-14T01:15:23;100600.98;;;15.10;55.66
67987;BME280;54767;53.800;15.956;2023-06-14T01:17:51;100599.77;;;15.08;55.64
67987;BME280;54767;53.800;15.956;2023-06-14T01:20:22;100603.31;;;15.05;55.63
67987;BME280;54767;53.800;15.956;2023-06-14T01:22:52;100603.51;;;15.02;55.70
67987;BME280;54767;53.800;15.956;2023-06-14T01:25:21;100598.63;;;14.98;55.82
67987;BME280;54767;53.800;15.956;2023-06-14T01:28:00;100598.02;;;14.87;55.97
67987;BME280;54767;53.800;15.956;2023-06-14T01:30:31;100600.09;;;14.75;56.15
67987;BME280;54767;53.800;15.956;2023-06-14T01:33:01;100596.83;;;14.66;56.41
67987;BME280;54767;53.800;15.956;2023-06-14T01:35:30;100592.83;;;14.59;56.64
67987;BME280;54767;53.800;15.956;2023-06-14T01:37:59;100593.05;;;14.54;56.83
67987;BME280;54767;53.800;15.956;2023-06-14T01:40:28;100592.52;;;14.51;56.96
67987;BME280;54767;53.800;15.956;2023-06-14T01:42:59;100590.44;;;14.47;57.22
67987;BME280;54767;53.800;15.956;2023-06-14T01:45:28;100589.03;;;14.46;57.27
67987;BME280;54767;53.800;15.956;2023-06-14T01:47:57;100585.69;;;14.46;57.39
67987;BME280;54767;53.800;15.956;2023-06-14T01:50:31;100583.40;;;14.45;57.51
67987;BME280;54767;53.800;15.956;2023-06-14T01:53:00;100585.15;;;14.48;57.52
67987;BME280;54767;53.800;15.956;2023-06-14T01:55:28;100583.73;;;14.50;57.55
67987;BME280;54767;53.800;15.956;2023-06-14T01:57:57;100587.06;;;14.52;57.50
67987;BME280;54767;53.800;15.956;2023-06-14T02:00:26;100589.19;;;14.53;57.39
67987;BME280;54767;53.800;15.956;2023-06-14T02:02:55;100589.02;;;14.47;57.53
67987;BME280;54767;53.800;15.956;2023-06-14T02:05:23;100586.26;;;14.42;57.53
67987;BME280;54767;53.800;15.956;2023-06-14T02:07:52;100590.17;;;14.35;57.69
67987;BME280;54767;53.800;15.956;2023-06-14T02:10:24;100590.58;;;14.29;57.85
67987;BME280;54767;53.800;15.956;2023-06-14T02:12:52;100588.52;;;14.21;57.97
67987;BME280;54767;53.800;15.956;2023-06-14T02:15:20;100586.11;;;14.14;58.18
67987;BME280;54767;53.800;15.956;2023-06-14T02:17:50;100583.34;;;14.07;58.32
67987;BME280;54767;53.800;15.956;2023-06-14T02:20:19;100584.09;;;14.00;58.55
67987;BME280;54767;53.800;15.956;2023-06-14T02:22:47;100582.36;;;13.95;58.64
67987;BME280;54767;53.800;15.956;2023-06-14T02:25:15;100583.81;;;13.90;58.80
67987;BME280;54767;53.800;15.956;2023-06-14T02:27:44;100583.29;;;13.86;58.87
67987;BME280;54767;53.800;15.956;2023-06-14T02:30:12;100580.50;;;13.85;58.91
67987;BME280;54767;53.800;15.956;2023-06-14T02:32:41;100580.50;;;13.85;58.85
67987;BME280;54767;53.800;15.956;2023-06-14T02:35:11;100578.75;;;13.81;58.93
67987;BME280;54767;53.800;15.956;2023-06-14T02:37:39;100575.80;;;13.75;59.11
67987;BME280;54767;53.800;15.956;2023-06-14T02:40:08;100577.07;;;13.69;59.07
67987;BME280;54767;53.800;15.956;2023-06-14T02:42:37;100581.84;;;13.64;59.15
67987;BME280;54767;53.800;15.956;2023-06-14T02:45:05;100578.53;;;13.57;59.20
67987;BME280;54767;53.800;15.956;2023-06-14T02:47:34;100580.33;;;13.51;59.25
67987;BME280;54767;53.800;15.956;2023-06-14T02:50:03;100579.63;;;13.48;59.34
67987;BME280;54767;53.800;15.956;2023-06-14T02:52:31;100579.45;;;13.49;59.29
67987;BME280;54767;53.800;15.956;2023-06-14T02:55:01;100581.92;;;13.47;59.28
67987;BME280;54767;53.800;15.956;2023-06-14T02:57:29;100582.09;;;13.48;59.37
67987;BME280;54767;53.800;15.956;2023-06-14T02:59:58;100579.61;;;13.51;59.36
67987;BME280;54767;53.800;15.956;2023-06-14T03:02:26;100578.55;;;13.54;59.23
67987;BME280;54767;53.800;15.956;2023-06-14T03:04:55;100571.85;;;13.55;59.20
67987;BME280;54767;53.800;15.956;2023-06-14T03:07:23;100571.16;;;13.52;59.22
67987;BME280;54767;53.800;15.956;2023-06-14T03:09:53;100573.13;;;13.46;59.18
67987;BME280;54767;53.800;15.956;2023-06-14T03:12:22;100573.00;;;13.35;59.36
67987;BME280;54767;53.800;15.956;2023-06-14T03:14:51;100571.44;;;13.31;59.52
67987;BME280;54767;53.800;15.956;2023-06-14T03:17:20;100576.89;;;13.32;59.56
67987;BME280;54767;53.800;15.956;2023-06-14T03:19:48;100578.28;;;13.34;59.52
67987;BME280;54767;53.800;15.956;2023-06-14T03:22:17;100584.94;;;13.38;59.39
67987;BME280;54767;53.800;15.956;2023-06-14T03:24:46;100587.75;;;13.40;59.35
67987;BME280;54767;53.800;15.956;2023-06-14T03:27:15;100586.16;;;13.41;59.43
67987;BME280;54767;53.800;15.956;2023-06-14T03:29:44;100587.03;;;13.42;59.48
67987;BME280;54767;53.800;15.956;2023-06-14T03:32:12;100587.39;;;13.43;59.45
67987;BME280;54767;53.800;15.956;2023-06-14T03:34:40;100588.61;;;13.47;59.37
67987;BME280;54767;53.800;15.956;2023-06-14T03:37:09;100592.45;;;13.52;59.38
67987;BME280;54767;53.800;15.956;2023-06-14T03:39:37;100591.71;;;13.57;59.60
67987;BME280;54767;53.800;15.956;2023-06-14T03:42:06;100592.02;;;13.66;59.92
67987;BME280;54767;53.800;15.956;2023-06-14T03:44:35;100597.61;;;13.74;60.23
67987;BME280;54767;53.800;15.956;2023-06-14T03:47:03;100593.16;;;13.86;60.04
67987;BME280;54767;53.800;15.956;2023-06-14T03:49:31;100593.44;;;13.98;60.46
67987;BME280;54767;53.800;15.956;2023-06-14T03:52:00;100598.82;;;14.09;60.28
67987;BME280;54767;53.800;15.956;2023-06-14T03:54:28;100598.23;;;14.17;59.77
67987;BME280;54767;53.800;15.956;2023-06-14T03:57:17;100597.48;;;14.24;59.71
67987;BME280;54767;53.800;15.956;2023-06-14T03:59:45;100599.50;;;14.36;60.27
67987;BME280;54767;53.800;15.956;2023-06-14T04:02:15;100605.34;;;14.57;60.78
67987;BME280;54767;53.800;15.956;2023-06-14T04:04:44;100601.27;;;14.82;60.92
67987;BME280;54767;53.800;15.956;2023-06-14T04:07:14;100604.52;;;15.08;60.60
67987;BME280;54767;53.800;15.956;2023-06-14T04:09:42;100608.51;;;15.30;60.07
67987;BME280;54767;53.800;15.956;2023-06-14T04:12:11;100608.04;;;15.40;59.04
67987;BME280;54767;53.800;15.956;2023-06-14T04:14:40;100609.58;;;15.44;58.74
67987;BME280;54767;53.800;15.956;2023-06-14T04:17:08;100605.67;;;15.61;59.01
67987;BME280;54767;53.800;15.956;2023-06-14T04:19:37;100608.48;;;15.89;59.07
67987;BME280;54767;53.800;15.956;2023-06-14T04:22:06;100610.56;;;16.18;58.64
67987;BME280;54767;53.800;15.956;2023-06-14T04:24:34;100614.75;;;16.43;58.06
67987;BME280;54767;53.800;15.956;2023-06-14T04:27:05;100616.77;;;16.61;57.10
67987;BME280;54767;53.800;15.956;2023-06-14T04:29:35;100618.58;;;16.69;56.52
67987;BME280;54767;53.800;15.956;2023-06-14T04:32:04;100618.46;;;16.76;56.11
67987;BME280;54767;53.800;15.956;2023-06-14T04:34:34;100623.02;;;16.89;56.07
67987;BME280;54767;53.800;15.956;2023-06-14T04:37:03;100626.66;;;17.03;55.45
67987;BME280;54767;53.800;15.956;2023-06-14T04:39:31;100629.02;;;17.01;54.65
67987;BME280;54767;53.800;15.956;2023-06-14T04:42:00;100626.63;;;17.05;55.16
67987;BME280;54767;53.800;15.956;2023-06-14T04:44:31;100625.41;;;17.32;55.21
67987;BME280;54767;53.800;15.956;2023-06-14T04:47:00;100625.67;;;17.54;54.83
67987;BME280;54767;53.800;15.956;2023-06-14T04:49:28;100626.44;;;17.78;54.37
67987;BME280;54767;53.800;15.956;2023-06-14T04:52:01;100623.48;;;17.92;53.73
67987;BME280;54767;53.800;15.956;2023-06-14T04:54:33;100615.56;;;18.06;53.53
67987;BME280;54767;53.800;15.956;2023-06-14T04:57:09;100618.44;;;18.27;53.18
67987;BME280;54767;53.800;15.956;2023-06-14T04:59:43;100625.30;;;18.43;52.99
67987;BME280;54767;53.800;15.956;2023-06-14T05:02:12;100623.81;;;18.54;52.48
67987;BME280;54767;53.800;15.956;2023-06-14T05:04:40;100620.85;;;18.60;52.00
67987;BME280;54767;53.800;15.956;2023-06-14T05:07:09;100620.11;;;18.53;51.57
67987;BME280;54767;53.800;15.956;2023-06-14T05:09:37;100616.61;;;18.51;51.51
67987;BME280;54767;53.800;15.956;2023-06-14T05:12:06;100618.05;;;18.51;51.84
67987;BME280;54767;53.800;15.956;2023-06-14T05:14:38;100620.55;;;18.64;52.22
67987;BME280;54767;53.800;15.956;2023-06-14T05:17:07;100622.52;;;18.79;51.99
67987;BME280;54767;53.800;15.956;2023-06-14T05:19:35;100620.38;;;18.86;51.64
67987;BME280;54767;53.800;15.956;2023-06-14T05:22:04;100618.60;;;18.93;51.37
67987;BME280;54767;53.800;15.956;2023-06-14T05:24:33;100613.80;;;18.93;50.80
67987;BME280;54767;53.800;15.956;2023-06-14T05:27:02;100610.12;;;18.85;50.59
67987;BME280;54767;53.800;15.956;2023-06-14T05:29:30;100607.55;;;18.81;50.51
67987;BME280;54767;53.800;15.956;2023-06-14T05:31:58;100604.30;;;18.70;50.40
67987;BME280;54767;53.800;15.956;2023-06-14T05:34:27;100603.67;;;18.59;50.64
67987;BME280;54767;53.800;15.956;2023-06-14T05:36:55;100604.64;;;18.56;51.06
67987;BME280;54767;53.800;15.956;2023-06-14T05:39:24;100609.02;;;18.64;51.39
67987;BME280;54767;53.800;15.956;2023-06-14T05:41:52;100609.17;;;18.81;51.56
67987;BME280;54767;53.800;15.956;2023-06-14T05:44:21;100602.27;;;18.93;51.56
67987;BME280;54767;53.800;15.956;2023-06-14T05:46:49;100600.41;;;19.10;51.34
67987;BME280;54767;53.800;15.956;2023-06-14T05:49:18;100593.30;;;19.23;51.22
67987;BME280;54767;53.800;15.956;2023-06-14T05:51:46;100592.52;;;19.32;50.70
67987;BME280;54767;53.800;15.956;2023-06-14T05:54:15;100594.44;;;19.33;50.57
67987;BME280;54767;53.800;15.956;2023-06-14T05:56:44;100603.47;;;19.40;50.61
67987;BME280;54767;53.800;15.956;2023-06-14T05:59:12;100601.29;;;19.48;50.55
67987;BME280;54767;53.800;15.956;2023-06-14T06:01:41;100598.99;;;19.60;50.31
67987;BME280;54767;53.800;15.956;2023-06-14T06:04:10;100597.04;;;19.67;50.21
67987;BME280;54767;53.800;15.956;2023-06-14T06:06:38;100597.95;;;19.65;49.82
67987;BME280;54767;53.800;15.956;2023-06-14T06:09:07;100602.83;;;19.62;49.68
67987;BME280;54767;53.800;15.956;2023-06-14T06:11:36;100598.35;;;19.64;49.87
67987;BME280;54767;53.800;15.956;2023-06-14T06:14:20;100600.59;;;19.73;49.72
67987;BME280;54767;53.800;15.956;2023-06-14T06:16:48;100603.33;;;19.71;49.62
67987;BME280;54767;53.800;15.956;2023-06-14T06:19:17;100606.08;;;19.68;49.51
67987;BME280;54767;53.800;15.956;2023-06-14T06:21:45;100607.40;;;19.64;49.58
67987;BME280;54767;53.800;15.956;2023-06-14T06:24:14;100610.43;;;19.57;49.71
67987;BME280;54767;53.800;15.956;2023-06-14T06:26:42;100612.85;;;19.53;49.67
67987;BME280;54767;53.800;15.956;2023-06-14T06:29:11;100615.08;;;19.50;49.90
67987;BME280;54767;53.800;15.956;2023-06-14T06:31:39;100610.17;;;19.48;50.10
67987;BME280;54767;53.800;15.956;2023-06-14T06:34:08;100608.46;;;19.45;49.85
67987;BME280;54767;53.800;15.956;2023-06-14T06:36:36;100609.10;;;19.42;50.00
67987;BME280;54767;53.800;15.956;2023-06-14T06:39:05;100606.80;;;19.41;50.16
67987;BME280;54767;53.800;15.956;2023-06-14T06:41:38;100610.95;;;19.39;49.94
67987;BME280;54767;53.800;15.956;2023-06-14T06:44:08;100610.68;;;19.36;50.03
67987;BME280;54767;53.800;15.956;2023-06-14T06:46:39;100615.05;;;19.38;50.42
67987;BME280;54767;53.800;15.956;2023-06-14T06:49:09;100607.16;;;19.41;50.47
67987;BME280;54767;53.800;15.956;2023-06-14T06:51:43;100612.98;;;19.49;50.70
67987;BME280;54767;53.800;15.956;2023-06-14T06:54:20;100612.91;;;19.57;50.69
67987;BME280;54767;53.800;15.956;2023-06-14T06:56:49;100614.67;;;19.58;50.40
67987;BME280;54767;53.800;15.956;2023-06-14T06:59:17;100614.33;;;19.57;50.45
67987;BME280;54767;53.800;15.956;2023-06-14T07:01:46;100617.27;;;19.60;50.60
67987;BME280;54767;53.800;15.956;2023-06-14T07:04:14;100615.58;;;19.63;50.39
67987;BME280;54767;53.800;15.956;2023-06-14T07:06:43;100616.23;;;19.59;50.29
67987;BME280;54767;53.800;15.956;2023-06-14T07:09:12;100615.17;;;19.59;50.55
67987;BME280;54767;53.800;15.956;2023-06-14T07:11:43;100616.31;;;19.62;50.80
67987;BME280;54767;53.800;15.956;2023-06-14T07:14:12;100612.48;;;19.67;50.99
67987;BME280;54767;53.800;15.956;2023-06-14T07:16:40;100612.36;;;19.72;50.42
67987;BME280;54767;53.800;15.956;2023-06-14T07:19:10;100618.21;;;19.77;50.55
67987;BME280;54767;53.800;15.956;2023-06-14T07:21:38;100611.45;;;19.83;50.41
67987;BME280;54767;53.800;15.956;2023-06-14T07:24:06;100614.65;;;19.90;50.57
67987;BME280;54767;53.800;15.956;2023-06-14T07:26:36;100609.97;;;19.92;50.41
67987;BME280;54767;53.800;15.956;2023-06-14T07:29:04;100616.59;;;19.91;50.28
67987;BME280;54767;53.800;15.956;2023-06-14T07:31:33;100618.52;;;19.91;50.56
67987;BME280;54767;53.800;15.956;2023-06-14T07:34:01;100614.30;;;19.95;50.45
67987;BME280;54767;53.800;15.956;2023-06-14T07:36:30;100613.05;;;19.96;50.64
67987;BME280;54767;53.800;15.956;2023-06-14T07:38:58;100614.08;;;19.97;51.04
67987;BME280;54767;53.800;15.956;2023-06-14T07:41:27;100612.48;;;20.03;50.87
67987;BME280;54767;53.800;15.956;2023-06-14T07:43:55;100610.42;;;20.12;50.60
67987;BME280;54767;53.800;15.956;2023-06-14T07:46:24;100614.31;;;20.18;50.57
67987;BME280;54767;53.800;15.956;2023-06-14T07:48:52;100618.62;;;20.28;50.43
67987;BME280;54767;53.800;15.956;2023-06-14T07:51:21;100618.71;;;20.36;50.41
67987;BME280;54767;53.800;15.956;2023-06-14T07:53:50;100614.65;;;20.46;50.31
67987;BME280;54767;53.800;15.956;2023-06-14T07:56:18;100612.27;;;20.54;50.27
67987;BME280;54767;53.800;15.956;2023-06-14T07:58:47;100611.02;;;20.60;49.72
67987;BME280;54767;53.800;15.956;2023-06-14T08:01:16;100607.59;;;20.62;49.60
67987;BME280;54767;53.800;15.956;2023-06-14T08:03:45;100608.34;;;20.66;49.42
67987;BME280;54767;53.800;15.956;2023-06-14T08:06:14;100602.33;;;20.70;49.19
67987;BME280;54767;53.800;15.956;2023-06-14T08:08:43;100604.06;;;20.76;49.51
67987;BME280;54767;53.800;15.956;2023-06-14T08:11:11;100604.59;;;20.82;49.21
67987;BME280;54767;53.800;15.956;2023-06-14T08:13:40;100602.08;;;20.88;49.46
67987;BME280;54767;53.800;15.956;2023-06-14T08:16:08;100598.08;;;20.95;49.61
67987;BME280;54767;53.800;15.956;2023-06-14T08:18:37;100601.93;;;21.02;49.44
67987;BME280;54767;53.800;15.956;2023-06-14T08:21:05;100603.08;;;21.10;49.28
67987;BME280;54767;53.800;15.956;2023-06-14T08:23:35;100602.09;;;21.17;48.11
67987;BME280;54767;53.800;15.956;2023-06-14T08:26:04;100600.93;;;21.25;47.94
67987;BME280;54767;53.800;15.956;2023-06-14T08:28:33;100591.66;;;21.35;47.79
67987;BME280;54767;53.800;15.956;2023-06-14T08:31:01;100589.41;;;21.43;48.24
67987;BME280;54767;53.800;15.956;2023-06-14T08:33:29;100590.59;;;21.50;48.63
67987;BME280;54767;53.800;15.956;2023-06-14T08:36:01;100588.20;;;21.48;48.62
67987;BME280;54767;53.800;15.956;2023-06-14T08:38:30;100589.66;;;21.46;48.90
67987;BME280;54767;53.800;15.956;2023-06-14T08:41:00;100581.88;;;21.45;48.84
67987;BME280;54767;53.800;15.956;2023-06-14T08:43:30;100587.17;;;21.42;48.59
67987;BME280;54767;53.800;15.956;2023-06-14T08:46:00;100587.52;;;21.37;48.39
67987;BME280;54767;53.800;15.956;2023-06-14T08:48:30;100586.79;;;21.32;48.43
67987;BME280;54767;53.800;15.956;2023-06-14T08:51:02;100585.92;;;21.31;48.61
67987;BME280;54767;53.800;15.956;2023-06-14T08:53:33;100588.89;;;21.28;48.70
67987;BME280;54767;53.800;15.956;2023-06-14T08:56:06;100590.60;;;21.25;49.07
67987;BME280;54767;53.800;15.956;2023-06-14T08:58:35;100584.08;;;21.28;49.07
67987;BME280;54767;53.800;15.956;2023-06-14T09:01:04;100581.38;;;21.30;49.03
67987;BME280;54767;53.800;15.956;2023-06-14T09:03:33;100580.40;;;21.31;48.90
67987;BME280;54767;53.800;15.956;2023-06-14T09:06:02;100581.88;;;21.30;48.94
67987;BME280;54767;53.800;15.956;2023-06-14T09:08:31;100583.83;;;21.30;49.01
67987;BME280;54767;53.800;15.956;2023-06-14T09:11:01;100584.35;;;21.35;48.03
67987;BME280;54767;53.800;15.956;2023-06-14T09:13:30;100583.55;;;21.43;47.36
67987;BME280;54767;53.800;15.956;2023-06-14T09:15:59;100591.61;;;21.52;47.80
67987;BME280;54767;53.800;15.956;2023-06-14T09:18:54;100588.77;;;21.60;47.80
67987;BME280;54767;53.800;15.956;2023-06-14T09:21:26;100586.39;;;21.62;48.05
67987;BME280;54767;53.800;15.956;2023-06-14T09:23:58;100584.05;;;21.67;48.15
67987;BME280;54767;53.800;15.956;2023-06-14T09:26:28;100582.57;;;21.74;48.22
67987;BME280;54767;53.800;15.956;2023-06-14T09:28:57;100578.42;;;21.84;48.63
67987;BME280;54767;53.800;15.956;2023-06-14T09:31:26;100579.70;;;21.97;48.90
67987;BME280;54767;53.800;15.956;2023-06-14T09:33:59;100575.78;;;22.10;48.25
67987;BME280;54767;53.800;15.956;2023-06-14T09:36:31;100567.58;;;22.20;47.61
67987;BME280;54767;53.800;15.956;2023-06-14T09:39:01;100569.79;;;22.27;47.40
67987;BME280;54767;53.800;15.956;2023-06-14T09:41:35;100574.23;;;22.36;47.12
67987;BME280;54767;53.800;15.956;2023-06-14T09:44:06;100574.47;;;22.43;46.88
67987;BME280;54767;53.800;15.956;2023-06-14T09:46:41;100575.09;;;22.49;46.57
67987;BME280;54767;53.800;15.956;2023-06-14T09:49:09;100577.22;;;22.54;46.08
67987;BME280;54767;53.800;15.956;2023-06-14T09:51:45;100570.97;;;22.59;46.27
67987;BME280;54767;53.800;15.956;2023-06-14T09:54:22;100563.80;;;22.68;45.88
67987;BME280;54767;53.800;15.956;2023-06-14T09:56:51;100558.33;;;22.79;45.57
67987;BME280;54767;53.800;15.956;2023-06-14T09:59:22;100560.33;;;22.86;45.13
67987;BME280;54767;53.800;15.956;2023-06-14T10:01:58;100558.83;;;22.84;44.60
67987;BME280;54767;53.800;15.956;2023-06-14T10:04:29;100555.63;;;22.75;44.49
67987;BME280;54767;53.800;15.956;2023-06-14T10:06:59;100548.27;;;22.72;44.00
67987;BME280;54767;53.800;15.956;2023-06-14T10:09:30;100541.27;;;22.69;43.80
67987;BME280;54767;53.800;15.956;2023-06-14T10:12:01;100541.30;;;22.68;43.43
67987;BME280;54767;53.800;15.956;2023-06-14T10:14:30;100540.78;;;22.68;43.41
67987;BME280;54767;53.800;15.956;2023-06-14T10:17:12;100535.41;;;22.68;43.58
67987;BME280;54767;53.800;15.956;2023-06-14T10:19:52;100534.66;;;22.69;43.83
67987;BME280;54767;53.800;15.956;2023-06-14T10:22:32;100532.03;;;22.72;44.54
67987;BME280;54767;53.800;15.956;2023-06-14T10:25:06;100533.64;;;22.80;43.58
67987;BME280;54767;53.800;15.956;2023-06-14T10:27:35;100536.58;;;22.82;43.60
67987;BME280;54767;53.800;15.956;2023-06-14T10:30:07;100537.09;;;22.83;43.88
67987;BME280;54767;53.800;15.956;2023-06-14T10:33:05;100541.44;;;22.82;43.89
67987;BME280;54767;53.800;15.956;2023-06-14T10:35:38;100534.98;;;22.74;43.63
67987;BME280;54767;53.800;15.956;2023-06-14T10:38:11;100534.85;;;22.69;43.95
67987;BME280;54767;53.800;15.956;2023-06-14T10:40:40;100539.63;;;22.66;43.75
67987;BME280;54767;53.800;15.956;2023-06-14T10:43:22;100534.00;;;22.59;43.60
67987;BME280;54767;53.800;15.956;2023-06-14T10:46:18;100532.67;;;22.57;43.93
67987;BME280;54767;53.800;15.956;2023-06-14T10:48:56;100531.32;;;22.60;44.45
67987;BME280;54767;53.800;15.956;2023-06-14T10:51:29;100531.27;;;22.65;44.45
67987;BME280;54767;53.800;15.956;2023-06-14T10:53:59;100529.67;;;22.64;44.20
67987;BME280;54767;53.800;15.956;2023-06-14T10:56:29;100525.70;;;22.57;44.20
67987;BME280;54767;53.800;15.956;2023-06-14T10:58:58;100523.10;;;22.52;44.46
67987;BME280;54767;53.800;15.956;2023-06-14T11:01:36;100521.22;;;22.50;44.34
67987;BME280;54767;53.800;15.956;2023-06-14T11:04:11;100518.80;;;22.52;44.65
67987;BME280;54767;53.800;15.956;2023-06-14T11:06:50;100520.83;;;22.54;44.51
67987;BME280;54767;53.800;15.956;2023-06-14T11:09:44;100514.55;;;22.51;44.70
67987;BME280;54767;53.800;15.956;2023-06-14T11:12:15;100513.95;;;22.52;44.87
67987;BME280;54767;53.800;15.956;2023-06-14T11:14:46;100511.33;;;22.56;44.92
67987;BME280;54767;53.800;15.956;2023-06-14T11:17:15;100506.05;;;22.62;45.01
67987;BME280;54767;53.800;15.956;2023-06-14T11:19:44;100503.86;;;22.68;44.79
67987;BME280;54767;53.800;15.956;2023-06-14T11:22:12;100496.98;;;22.69;44.88
67987;BME280;54767;53.800;15.956;2023-06-14T11:24:43;100495.27;;;22.72;44.92
67987;BME280;54767;53.800;15.956;2023-06-14T11:27:13;100492.83;;;22.71;44.73
67987;BME280;54767;53.800;15.956;2023-06-14T11:29:48;100494.38;;;22.68;44.61
67987;BME280;54767;53.800;15.956;2023-06-14T11:32:18;100505.02;;;22.66;44.45
67987;BME280;54767;53.800;15.956;2023-06-14T11:34:46;100505.04;;;22.61;44.34
67987;BME280;54767;53.800;15.956;2023-06-14T11:37:15;100501.05;;;22.58;44.19
67987;BME280;54767;53.800;15.956;2023-06-14T11:39:44;100504.29;;;22.53;43.84
67987;BME280;54767;53.800;15.956;2023-06-14T11:42:15;100506.08;;;22.45;43.57
67987;BME280;54767;53.800;15.956;2023-06-14T11:44:47;100509.91;;;22.30;43.73
67987;BME280;54767;53.800;15.956;2023-06-14T11:47:15;100508.48;;;22.22;43.82
67987;BME280;54767;53.800;15.956;2023-06-14T11:49:44;100509.27;;;22.15;44.21
67987;BME280;54767;53.800;15.956;2023-06-14T11:52:13;100510.86;;;22.07;44.39
67987;BME280;54767;53.800;15.956;2023-06-14T11:54:41;100507.52;;;22.01;44.62
67987;BME280;54767;53.800;15.956;2023-06-14T11:57:11;100503.81;;;21.92;44.58
67987;BME280;54767;53.800;15.956;2023-06-14T11:59:40;100498.65;;;21.83;44.83
67987;BME280;54767;53.800;15.956;2023-06-14T12:02:08;100494.56;;;21.74;44.99
67987;BME280;54767;53.800;15.956;2023-06-14T12:04:40;100492.14;;;21.67;45.12
67987;BME280;54767;53.800;15.956;2023-06-14T12:07:13;100493.44;;;21.66;45.44
67987;BME280;54767;53.800;15.956;2023-06-14T12:12:24;100488.81;;;21.71;46.17
67987;BME280;54767;53.800;15.956;2023-06-14T12:14:55;100491.35;;;21.74;46.31
67987;BME280;54767;53.800;15.956;2023-06-14T12:17:24;100491.54;;;21.78;46.38
67987;BME280;54767;53.800;15.956;2023-06-14T12:19:53;100486.73;;;21.78;46.53
67987;BME280;54767;53.800;15.956;2023-06-14T12:22:22;100481.58;;;21.78;46.64
67987;BME280;54767;53.800;15.956;2023-06-14T12:24:51;100484.12;;;21.81;46.49
67987;BME280;54767;53.800;15.956;2023-06-14T12:27:21;100487.11;;;21.77;45.43
67987;BME280;54767;53.800;15.956;2023-06-14T12:30:18;100483.64;;;21.71;44.30
67987;BME280;54767;53.800;15.956;2023-06-14T12:32:46;100484.23;;;21.65;44.23
67987;BME280;54767;53.800;15.956;2023-06-14T12:35:15;100486.70;;;21.61;43.97
67987;BME280;54767;53.800;15.956;2023-06-14T12:37:44;100484.20;;;21.57;43.83
67987;BME280;54767;53.800;15.956;2023-06-14T12:40:13;100486.70;;;21.52;44.00
67987;BME280;54767;53.800;15.956;2023-06-14T12:42:42;100483.06;;;21.49;44.21
67987;BME280;54767;53.800;15.956;2023-06-14T12:45:10;100489.05;;;21.47;44.41
67987;BME280;54767;53.800;15.956;2023-06-14T12:47:39;100488.30;;;21.42;44.62
67987;BME280;54767;53.800;15.956;2023-06-14T12:50:08;100492.20;;;21.38;45.15
67987;BME280;54767;53.800;15.956;2023-06-14T12:52:36;100495.74;;;21.29;45.37
67987;BME280;54767;53.800;15.956;2023-06-14T12:55:05;100495.75;;;21.19;45.64
67987;BME280;54767;53.800;15.956;2023-06-14T12:57:33;100498.81;;;21.14;45.82
67987;BME280;54767;53.800;15.956;2023-06-14T13:00:05;100497.84;;;21.06;46.03
67987;BME280;54767;53.800;15.956;2023-06-14T13:02:35;100492.80;;;20.99;46.02